• Join FlightAware (Why Join?)
  • Login
  • US Flag 
12:08PM EDT


 

Airport Tracker/Info


-or-


 

Live Flight TrackerFlight Track Log ✈ FLG3456 ✈ 09-May-2014 ✈ KALB - KDTW

Flight Track Log - Related Links

Times and Time Zones

All times are in EDT time to prevent confusion due to time zone crossing. See the FLG3456 flight status page for this flight to view local times or setup timezone preferences in your user account.

Time Position Orientation Groundspeed Altitude Reporting Facility
EDT Latitude Longitude Course Direction KTS MPH feet Rate Location/Type
05:26PM 42.7275 -73.8039 276° West 147 169 1,200  Level Boston Center
05:27PM 42.7319 -73.8608 276° West 242 278 3,400 2,280 Climbing Boston Center
05:28PM 42.8006 -73.9039 335° Northwest 246 283 6,300 2,460 Climbing Boston Center
05:29PM 42.8675 -73.9500 333° Northwest 266 306 8,800 2,340 Climbing Boston Center
05:30PM 42.9453 -74.0008 334° Northwest 285 328 11,200 2,400 Climbing Boston Center
05:31PM 43.0242 -74.0494 336° Northwest 307 353 13,700 2,280 Climbing Boston Center
05:32PM 43.1053 -74.1003 335° Northwest 315 362 15,900 1,980 Climbing Boston Center
05:33PM 43.1936 -74.1636 332° Northwest 329 379 17,900 1,140 Climbing Boston Center
05:34PM 43.2031 -74.2953 276° West 354 407 18,300 660 Climbing Boston Center
05:35PM 43.2008 -74.4375 269° West 389 448 19,300 1,200 Climbing Boston Center
05:36PM 43.1983 -74.5908 269° West 399 459 20,800 1,440 Climbing Boston Center
05:37PM 43.1953 -74.7456 269° West 402 463 22,300 1,500 Climbing Boston Center
05:38PM 43.1922 -74.9011 269° West 408 470 23,900 1,500 Climbing Boston Center
05:39PM 43.1892 -75.0556 268° West 406 467 25,400 1,440 Climbing Boston Center
05:40PM 43.1853 -75.2089 268° West 401 461 26,900 1,200 Climbing Boston Center
05:41PM 43.1819 -75.3633 268° West 400 460 28,000 1,020 Climbing Boston Center
05:42PM 43.1794 -75.5181 269° West 400 460 29,000 1,080 Climbing Boston Center
05:43PM 43.1750 -75.7047 268° West 403 464 30,200 1,020 Climbing Boston Center
05:44PM 43.1706 -75.8600 268° West 407 468 31,200 1,140 Climbing Boston Center
05:45PM 43.1664 -76.0147 268° West 407 468 32,600 1,260 Climbing Boston Center
05:46PM 43.1631 -76.1642 268° West 398 458 33,900 900 Climbing Boston Center
05:47PM 43.1539 -76.3106 265° West 391 450 34,500 480 Climbing Boston Center
05:48PM 43.1411 -76.4597 263° West 392 451 35,000 480 Climbing Boston Center
05:49PM 43.1278 -76.6108 263° West 397 457 35,500 480 Climbing Boston Center
05:50PM 43.1122 -76.7814 263° West 399 459 36,000 240 Climbing Boston Center
05:51PM 43.0989 -76.9236 263° West 382 440 36,000  Level Boston Center
05:53PM 43.0875 -77.0617 264° West 372 428 36,000  Level Boston Center
05:54PM 43.0736 -77.2031 262° West 372 428 36,000  Level Boston Center
05:55PM 43.0608 -77.3461 263° West 380 437 36,000  Level Boston Center
05:56PM 43.0472 -77.4906 263° West 382 440 36,000  Level Boston Center
05:57PM 43.0275 -77.6911 262° West 385 443 36,000  Level Cleveland Center
05:58PM 43.0139 -77.8319 263° West 381 438 36,000  Level Cleveland Center
05:59PM 42.9994 -77.9711 262° West 378 435 36,000  Level Cleveland Center
06:00PM 42.9858 -78.1108 262° West 378 435 36,000  Level Cleveland Center
06:01PM 42.9711 -78.2536 262° West 382 440 36,000  Level Cleveland Center
06:02PM 42.9525 -78.4242 262° West 382 440 36,000  Level Cleveland Center
06:03PM 42.9381 -78.5647 262° West 380 437 36,000  Level Cleveland Center
06:04PM 42.9225 -78.7047 261° West 377 434 36,000 -240 Level Cleveland Center
06:05PM 42.9022 -78.8431 259° West 376 433 35,600 -720 Descending Cleveland Center
06:06PM 42.8817 -78.9800 258° West 372 428 34,600 -1,080 Descending Cleveland Center
06:07PM 42.8622 -79.1172 259° West 371 427 33,400 -2,220 Descending Cleveland Center
06:08PM 42.8356 -79.2867 258° West 381 438 30,100 -1,680 Descending Cleveland Center
06:09PM 42.8150 -79.4250 259° West 378 435 30,000 -60 Descending Cleveland Center
06:10PM 42.7944 -79.5617 258° West 373 429 30,000 -540 Level Cleveland Center
06:11PM 42.7731 -79.6989 258° West 372 428 28,900 -1,020 Descending Cleveland Center
06:12PM 42.7522 -79.8383 259° West 378 435 28,000 -480 Descending Cleveland Center
06:13PM 42.7439 -80.0219 267° West 408 470 28,000  Level Cleveland Center
06:14PM 42.7375 -80.1739 267° West 403 464 28,000  Level Cleveland Center
06:15PM 42.7308 -80.3247 267° West 398 458 28,000  Level Cleveland Center
06:16PM 42.7244 -80.4778 267° West 400 460 28,000  Level Cleveland Center
06:17PM 42.7178 -80.6283 267° West 399 459 28,000 -540 Level Cleveland Center
06:19PM 42.7119 -80.7808 267° West 399 459 27,000 -1,200 Descending Cleveland Center
06:20PM 42.7039 -80.9297 266° West 397 457 25,500 -1,440 Descending Cleveland Center
06:21PM 42.6839 -81.0900 260° West 371 427 24,000 -780 Descending Cleveland Center
06:22PM 42.6692 -81.2211 261° West 352 405 24,000  Level Cleveland Center
06:23PM 42.6531 -81.3600 261° West 365 420 24,000  Level Cleveland Center
06:24PM 42.6372 -81.4961 261° West 366 421 24,000 -420 Level Cleveland Center
06:25PM 42.6211 -81.6322 261° West 366 421 23,200 -1,440 Descending Cleveland Center
06:26PM 42.6039 -81.7689 260° West 365 420 21,100 -2,220 Descending Cleveland Center
06:27PM 42.5861 -81.9244 261° West 356 410 18,700 -2,220 Descending Cleveland Center
06:28PM 42.5708 -82.0475 260° West 336 387 16,600 -2,040 Descending Cleveland Center
06:29PM 42.5561 -82.1650 260° West 324 373 14,500 -1,980 Descending Cleveland Center
06:30PM 42.5419 -82.2792 260° West 314 361 12,500 -1,560 Descending Cleveland Center
06:31PM 42.5314 -82.3572 260° West 286 329 12,000 -540 Descending Cleveland Center
06:31PM 42.5292 -82.3839 264° West 293 337 12,000  Level Cleveland Center
06:31PM 42.5228 -82.4239 258° West 258 297 12,000  Level Cleveland Center
06:32PM 42.5169 -82.4806 262° West 269 310 12,000  Level Cleveland Center
06:32PM 42.5086 -82.5353 258° West 273 314 12,000  Level Cleveland Center
06:33PM 42.4906 -82.5967 248° West 269 310 12,000 -240 Level Cleveland Center
06:33PM 42.4817 -82.6194 242° Southwest 263 303 11,800 -1,020 Descending Cleveland Center
06:34PM 42.4597 -82.6817 244° Southwest 256 295 11,000 -1,020 Descending Cleveland Center
06:34PM 42.4475 -82.7169 245° Southwest 253 291 10,700 -1,020 Descending Cleveland Center
06:35PM 42.4292 -82.7708 245° Southwest 255 293 10,000 -1,320 Descending Cleveland Center
06:35PM 42.4161 -82.8061 243° Southwest 261 300 9,400 -2,340 Descending Cleveland Center
06:36PM 42.3969 -82.8575 243° Southwest 258 297 7,600 -2,400 Descending Cleveland Center
06:36PM 42.3844 -82.8950 246° West 259 298 7,000 -600 Descending Cleveland Center
06:37PM 42.3822 -82.9400 266° West 236 272 7,000  Level Cleveland Center
06:37PM 42.3850 -82.9714 277° West 198 228 7,000  Level Cleveland Center
06:38PM 42.4142 -82.9919 333° Northwest 222 255 7,000  Level Cleveland Center
06:38PM 42.4428 -82.9819 14° North 232 267 7,000 -120 Level Cleveland Center
06:39PM 42.4861 -82.9811 North 226 260 6,900  Descending Cleveland Center
06:39PM 42.4989 -82.9897 334° Northwest 175 201 7,000 -600 Climbing Cleveland Center
06:40PM 42.5122 -83.0267 296° West 167 192 6,300 -1,020 Descending Cleveland Center
06:41PM 42.5114 -83.0450 266° West 149 171 6,000 -300 Descending Cleveland Center
06:41PM 42.5006 -83.0789 247° West 154 177 6,000  Level Cleveland Center
06:42PM 42.4908 -83.0961 233° Southwest 160 184 6,000  Level Cleveland Center
06:42PM 42.4739 -83.1283 235° Southwest 161 185 6,000  Level Cleveland Center
06:43PM 42.4614 -83.1542 237° Southwest 167 192 6,000 -300 Level Cleveland Center
06:43PM 42.4403 -83.1694 208° Southwest 173 199 5,700 -900 Descending Cleveland Center
06:44PM 42.4189 -83.1881 213° Southwest 165 190 5,100 -1,380 Descending Cleveland Center
06:44PM 42.3917 -83.2075 208° Southwest 169 194 4,300 -1,020 Descending Cleveland Center
06:45PM 42.3792 -83.2164 208° Southwest 160 184 4,100 -780 Descending Cleveland Center
06:45PM 42.3517 -83.2364 208° Southwest 164 189 3,500 -900 Descending Cleveland Center
06:46PM 42.3369 -83.2472 209° Southwest 163 188 3,200 -1,020 Descending Cleveland Center
06:46PM 42.3106 -83.2656 207° Southwest 164 189 2,500 -900 Descending Cleveland Center
06:47PM 42.2969 -83.2756 209° Southwest 149 171 2,300 -600 Descending Cleveland Center
06:48PM 42.2769 -83.2917 211° Southwest 151 174 1,900 -720 Descending Cleveland Center
06:48PM 42.2656 -83.3022 214° Southwest 140 161 1,600 -720 Descending Cleveland Center
06:49PM 42.2436 -83.3175 207° Southwest 142 163 1,200 -600 Descending Cleveland Center
06:49PM 42.2303 -83.3253 203° Southwest 138 159 1,000 -300 Descending Cleveland Center
06:50PM 42.2117 -83.3403 211° Southwest 142 163 900 -180 Descending Cleveland Center